sensor_id;sensor_type;location;lat;lon;timestamp;P1;durP1;ratioP1;P2;durP2;ratioP2
9970;SDS011;5026;51.494;11.974;2022-12-10T00:01:49;50.97;;;17.93;;
9970;SDS011;5026;51.494;11.974;2022-12-10T00:04:17;60.83;;;16.50;;
9970;SDS011;5026;51.494;11.974;2022-12-10T00:06:45;42.30;;;16.13;;
9970;SDS011;5026;51.494;11.974;2022-12-10T00:09:13;44.07;;;16.57;;
9970;SDS011;5026;51.494;11.974;2022-12-10T00:11:41;42.50;;;15.20;;
9970;SDS011;5026;51.494;11.974;2022-12-10T00:14:08;45.33;;;16.50;;
9970;SDS011;5026;51.494;11.974;2022-12-10T00:16:38;45.37;;;17.10;;
9970;SDS011;5026;51.494;11.974;2022-12-10T00:19:05;45.27;;;16.30;;
9970;SDS011;5026;51.494;11.974;2022-12-10T00:21:34;41.93;;;16.37;;
9970;SDS011;5026;51.494;11.974;2022-12-10T00:24:02;40.03;;;16.10;;
9970;SDS011;5026;51.494;11.974;2022-12-10T00:26:31;45.80;;;17.40;;
9970;SDS011;5026;51.494;11.974;2022-12-10T00:29:00;39.40;;;15.40;;
9970;SDS011;5026;51.494;11.974;2022-12-10T00:31:29;43.43;;;16.53;;
9970;SDS011;5026;51.494;11.974;2022-12-10T00:34:00;42.67;;;17.60;;
9970;SDS011;5026;51.494;11.974;2022-12-10T00:36:29;42.00;;;16.10;;
9970;SDS011;5026;51.494;11.974;2022-12-10T00:38:58;38.90;;;15.57;;
9970;SDS011;5026;51.494;11.974;2022-12-10T00:41:25;42.77;;;16.60;;
9970;SDS011;5026;51.494;11.974;2022-12-10T00:43:52;38.27;;;16.27;;
9970;SDS011;5026;51.494;11.974;2022-12-10T00:46:19;42.20;;;15.83;;
9970;SDS011;5026;51.494;11.974;2022-12-10T00:48:46;43.77;;;16.43;;
9970;SDS011;5026;51.494;11.974;2022-12-10T00:51:16;39.07;;;16.03;;
9970;SDS011;5026;51.494;11.974;2022-12-10T00:53:44;47.53;;;17.00;;
9970;SDS011;5026;51.494;11.974;2022-12-10T00:56:13;45.87;;;16.70;;
9970;SDS011;5026;51.494;11.974;2022-12-10T00:58:41;44.00;;;16.50;;
9970;SDS011;5026;51.494;11.974;2022-12-10T01:01:09;38.73;;;16.50;;
9970;SDS011;5026;51.494;11.974;2022-12-10T01:03:37;51.40;;;18.83;;
9970;SDS011;5026;51.494;11.974;2022-12-10T01:08:37;47.43;;;19.60;;
9970;SDS011;5026;51.494;11.974;2022-12-10T01:11:05;47.10;;;18.03;;
9970;SDS011;5026;51.494;11.974;2022-12-10T01:13:32;45.37;;;17.87;;
9970;SDS011;5026;51.494;11.974;2022-12-10T01:15:59;44.50;;;19.50;;
9970;SDS011;5026;51.494;11.974;2022-12-10T01:18:27;48.97;;;18.60;;
9970;SDS011;5026;51.494;11.974;2022-12-10T01:20:54;47.80;;;18.67;;
9970;SDS011;5026;51.494;11.974;2022-12-10T01:23:21;45.07;;;17.50;;
9970;SDS011;5026;51.494;11.974;2022-12-10T01:25:50;49.90;;;19.20;;
9970;SDS011;5026;51.494;11.974;2022-12-10T01:28:16;53.57;;;19.80;;
9970;SDS011;5026;51.494;11.974;2022-12-10T01:30:44;47.23;;;18.27;;
9970;SDS011;5026;51.494;11.974;2022-12-10T01:33:11;50.30;;;19.70;;
9970;SDS011;5026;51.494;11.974;2022-12-10T01:35:38;53.60;;;20.60;;
9970;SDS011;5026;51.494;11.974;2022-12-10T01:38:05;44.50;;;18.43;;
9970;SDS011;5026;51.494;11.974;2022-12-10T01:40:36;50.37;;;19.73;;
9970;SDS011;5026;51.494;11.974;2022-12-10T01:43:04;55.60;;;21.40;;
9970;SDS011;5026;51.494;11.974;2022-12-10T01:45:31;49.73;;;18.00;;
9970;SDS011;5026;51.494;11.974;2022-12-10T01:47:59;51.17;;;20.20;;
9970;SDS011;5026;51.494;11.974;2022-12-10T01:50:26;48.60;;;17.80;;
9970;SDS011;5026;51.494;11.974;2022-12-10T01:52:53;50.30;;;19.67;;
9970;SDS011;5026;51.494;11.974;2022-12-10T01:55:37;43.47;;;17.73;;
9970;SDS011;5026;51.494;11.974;2022-12-10T01:58:08;47.00;;;17.60;;
9970;SDS011;5026;51.494;11.974;2022-12-10T02:00:38;51.73;;;18.77;;
9970;SDS011;5026;51.494;11.974;2022-12-10T02:03:13;43.50;;;17.23;;
9970;SDS011;5026;51.494;11.974;2022-12-10T02:05:44;49.00;;;18.13;;
9970;SDS011;5026;51.494;11.974;2022-12-10T02:08:18;48.70;;;17.70;;
9970;SDS011;5026;51.494;11.974;2022-12-10T02:10:54;49.07;;;17.53;;
9970;SDS011;5026;51.494;11.974;2022-12-10T02:13:28;40.80;;;17.43;;
9970;SDS011;5026;51.494;11.974;2022-12-10T02:16:00;49.80;;;19.57;;
9970;SDS011;5026;51.494;11.974;2022-12-10T02:18:31;53.27;;;20.67;;
9970;SDS011;5026;51.494;11.974;2022-12-10T02:21:03;48.93;;;19.43;;
9970;SDS011;5026;51.494;11.974;2022-12-10T02:23:35;50.73;;;19.33;;
9970;SDS011;5026;51.494;11.974;2022-12-10T02:26:06;45.50;;;18.30;;
9970;SDS011;5026;51.494;11.974;2022-12-10T02:28:40;47.80;;;19.20;;
9970;SDS011;5026;51.494;11.974;2022-12-10T02:31:15;46.10;;;19.33;;
9970;SDS011;5026;51.494;11.974;2022-12-10T02:33:47;43.27;;;18.13;;
9970;SDS011;5026;51.494;11.974;2022-12-10T02:36:18;43.87;;;18.60;;
9970;SDS011;5026;51.494;11.974;2022-12-10T02:38:46;47.50;;;17.20;;
9970;SDS011;5026;51.494;11.974;2022-12-10T07:38:02;63.30;;;19.93;;
9970;SDS011;5026;51.494;11.974;2022-12-10T07:40:28;61.47;;;19.97;;
9970;SDS011;5026;51.494;11.974;2022-12-10T07:42:56;60.53;;;18.30;;
9970;SDS011;5026;51.494;11.974;2022-12-10T07:45:23;64.20;;;19.27;;
9970;SDS011;5026;51.494;11.974;2022-12-10T07:47:51;63.80;;;20.33;;
9970;SDS011;5026;51.494;11.974;2022-12-10T07:50:19;65.33;;;20.80;;
9970;SDS011;5026;51.494;11.974;2022-12-10T07:52:46;55.87;;;20.03;;
9970;SDS011;5026;51.494;11.974;2022-12-10T07:55:13;58.57;;;18.10;;
9970;SDS011;5026;51.494;11.974;2022-12-10T07:57:40;57.43;;;18.77;;
9970;SDS011;5026;51.494;11.974;2022-12-10T08:00:08;57.30;;;20.03;;
9970;SDS011;5026;51.494;11.974;2022-12-10T08:02:36;58.57;;;19.60;;
9970;SDS011;5026;51.494;11.974;2022-12-10T08:05:04;56.97;;;18.37;;
9970;SDS011;5026;51.494;11.974;2022-12-10T08:07:32;66.07;;;19.10;;
9970;SDS011;5026;51.494;11.974;2022-12-10T08:09:59;59.30;;;19.63;;
9970;SDS011;5026;51.494;11.974;2022-12-10T08:12:26;52.30;;;18.30;;
9970;SDS011;5026;51.494;11.974;2022-12-10T08:14:53;52.37;;;18.67;;
9970;SDS011;5026;51.494;11.974;2022-12-10T08:17:20;53.47;;;17.50;;
9970;SDS011;5026;51.494;11.974;2022-12-10T08:19:47;52.97;;;18.33;;
9970;SDS011;5026;51.494;11.974;2022-12-10T08:22:15;52.57;;;18.00;;
9970;SDS011;5026;51.494;11.974;2022-12-10T08:24:44;52.50;;;18.07;;
9970;SDS011;5026;51.494;11.974;2022-12-10T08:27:11;56.37;;;19.57;;
9970;SDS011;5026;51.494;11.974;2022-12-10T08:29:38;54.00;;;19.47;;
9970;SDS011;5026;51.494;11.974;2022-12-10T08:32:05;52.43;;;19.93;;
9970;SDS011;5026;51.494;11.974;2022-12-10T08:34:32;49.47;;;18.17;;
9970;SDS011;5026;51.494;11.974;2022-12-10T08:36:59;53.97;;;18.67;;
9970;SDS011;5026;51.494;11.974;2022-12-10T08:39:26;56.00;;;19.63;;
9970;SDS011;5026;51.494;11.974;2022-12-10T08:41:55;53.77;;;18.23;;
9970;SDS011;5026;51.494;11.974;2022-12-10T08:44:22;52.97;;;17.67;;
9970;SDS011;5026;51.494;11.974;2022-12-10T08:46:49;49.90;;;19.00;;
9970;SDS011;5026;51.494;11.974;2022-12-10T08:49:16;51.70;;;19.23;;
9970;SDS011;5026;51.494;11.974;2022-12-10T08:51:43;49.10;;;17.07;;
9970;SDS011;5026;51.494;11.974;2022-12-10T08:54:11;44.60;;;17.60;;
9970;SDS011;5026;51.494;11.974;2022-12-10T08:56:38;44.93;;;18.80;;
9970;SDS011;5026;51.494;11.974;2022-12-10T08:59:06;49.77;;;18.43;;
9970;SDS011;5026;51.494;11.974;2022-12-10T09:01:34;53.40;;;18.13;;
9970;SDS011;5026;51.494;11.974;2022-12-10T09:04:00;44.50;;;15.60;;
9970;SDS011;5026;51.494;11.974;2022-12-10T09:06:28;51.37;;;17.77;;
9970;SDS011;5026;51.494;11.974;2022-12-10T09:08:55;49.43;;;18.73;;
9970;SDS011;5026;51.494;11.974;2022-12-10T09:11:23;45.80;;;17.37;;
9970;SDS011;5026;51.494;11.974;2022-12-10T09:13:50;38.53;;;15.27;;
9970;SDS011;5026;51.494;11.974;2022-12-10T09:16:19;44.73;;;16.40;;
9970;SDS011;5026;51.494;11.974;2022-12-10T09:18:46;37.73;;;15.67;;
9970;SDS011;5026;51.494;11.974;2022-12-10T09:21:14;40.37;;;16.77;;
9970;SDS011;5026;51.494;11.974;2022-12-10T09:23:42;41.23;;;17.13;;
9970;SDS011;5026;51.494;11.974;2022-12-10T09:26:10;43.50;;;17.77;;
9970;SDS011;5026;51.494;11.974;2022-12-10T09:28:38;43.77;;;16.47;;
9970;SDS011;5026;51.494;11.974;2022-12-10T09:31:06;39.80;;;17.57;;
9970;SDS011;5026;51.494;11.974;2022-12-10T09:33:35;40.80;;;16.77;;
9970;SDS011;5026;51.494;11.974;2022-12-10T09:36:03;38.03;;;16.07;;
9970;SDS011;5026;51.494;11.974;2022-12-10T09:38:33;42.43;;;17.47;;
9970;SDS011;5026;51.494;11.974;2022-12-10T09:41:00;39.40;;;16.33;;
9970;SDS011;5026;51.494;11.974;2022-12-10T09:43:32;38.07;;;15.83;;
9970;SDS011;5026;51.494;11.974;2022-12-10T09:46:12;42.20;;;16.57;;
9970;SDS011;5026;51.494;11.974;2022-12-10T09:48:52;42.33;;;18.17;;
9970;SDS011;5026;51.494;11.974;2022-12-10T09:51:28;39.03;;;17.10;;
9970;SDS011;5026;51.494;11.974;2022-12-10T09:53:58;35.43;;;16.37;;
9970;SDS011;5026;51.494;11.974;2022-12-10T09:56:28;38.23;;;16.10;;
9970;SDS011;5026;51.494;11.974;2022-12-10T09:58:57;36.17;;;16.03;;
9970;SDS011;5026;51.494;11.974;2022-12-10T10:01:29;41.97;;;16.53;;
9970;SDS011;5026;51.494;11.974;2022-12-10T10:04:00;38.07;;;15.97;;
9970;SDS011;5026;51.494;11.974;2022-12-10T10:06:29;40.47;;;16.77;;
9970;SDS011;5026;51.494;11.974;2022-12-10T10:08:58;39.13;;;16.77;;
9970;SDS011;5026;51.494;11.974;2022-12-10T10:11:28;42.63;;;16.90;;
9970;SDS011;5026;51.494;11.974;2022-12-10T10:13:58;41.63;;;17.97;;
9970;SDS011;5026;51.494;11.974;2022-12-10T10:16:27;44.17;;;18.37;;
9970;SDS011;5026;51.494;11.974;2022-12-10T10:19:04;41.23;;;17.60;;
9970;SDS011;5026;51.494;11.974;2022-12-10T10:21:39;45.37;;;17.80;;
9970;SDS011;5026;51.494;11.974;2022-12-10T10:24:09;46.23;;;18.47;;
9970;SDS011;5026;51.494;11.974;2022-12-10T10:26:39;43.00;;;18.60;;
9970;SDS011;5026;51.494;11.974;2022-12-10T10:29:07;43.27;;;17.50;;
9970;SDS011;5026;51.494;11.974;2022-12-10T10:31:37;46.17;;;17.93;;
9970;SDS011;5026;51.494;11.974;2022-12-10T10:34:17;42.23;;;17.50;;
9970;SDS011;5026;51.494;11.974;2022-12-10T10:36:45;39.20;;;18.03;;
9970;SDS011;5026;51.494;11.974;2022-12-10T10:39:19;44.87;;;18.50;;
9970;SDS011;5026;51.494;11.974;2022-12-10T10:41:53;41.67;;;18.07;;
9970;SDS011;5026;51.494;11.974;2022-12-10T10:44:22;42.37;;;17.83;;
9970;SDS011;5026;51.494;11.974;2022-12-10T10:46:54;40.77;;;16.17;;
9970;SDS011;5026;51.494;11.974;2022-12-10T10:49:23;39.57;;;16.47;;
9970;SDS011;5026;51.494;11.974;2022-12-10T10:51:52;46.03;;;18.43;;
9970;SDS011;5026;51.494;11.974;2022-12-10T10:54:30;40.67;;;17.23;;
9970;SDS011;5026;51.494;11.974;2022-12-10T10:57:01;42.37;;;17.40;;
9970;SDS011;5026;51.494;11.974;2022-12-10T10:59:31;44.50;;;18.17;;
9970;SDS011;5026;51.494;11.974;2022-12-10T11:02:01;48.37;;;19.87;;
9970;SDS011;5026;51.494;11.974;2022-12-10T11:04:37;46.30;;;18.43;;
9970;SDS011;5026;51.494;11.974;2022-12-10T11:07:16;44.00;;;18.20;;
9970;SDS011;5026;51.494;11.974;2022-12-10T11:09:48;42.17;;;17.70;;
9970;SDS011;5026;51.494;11.974;2022-12-10T11:12:27;46.93;;;20.27;;
9970;SDS011;5026;51.494;11.974;2022-12-10T11:14:56;43.20;;;18.27;;
9970;SDS011;5026;51.494;11.974;2022-12-10T11:17:24;47.13;;;19.47;;
9970;SDS011;5026;51.494;11.974;2022-12-10T11:19:56;41.60;;;18.20;;
9970;SDS011;5026;51.494;11.974;2022-12-10T11:22:26;43.17;;;18.10;;
9970;SDS011;5026;51.494;11.974;2022-12-10T11:24:54;41.77;;;17.20;;
9970;SDS011;5026;51.494;11.974;2022-12-10T11:27:31;41.37;;;17.57;;
9970;SDS011;5026;51.494;11.974;2022-12-10T11:30:12;40.70;;;16.40;;
9970;SDS011;5026;51.494;11.974;2022-12-10T11:33:00;47.10;;;17.83;;
9970;SDS011;5026;51.494;11.974;2022-12-10T11:35:45;44.43;;;17.60;;
9970;SDS011;5026;51.494;11.974;2022-12-10T11:38:20;42.77;;;17.90;;
9970;SDS011;5026;51.494;11.974;2022-12-10T11:40:55;43.57;;;17.90;;
9970;SDS011;5026;51.494;11.974;2022-12-10T11:43:33;44.80;;;17.53;;
9970;SDS011;5026;51.494;11.974;2022-12-10T11:49:07;45.00;;;17.57;;
9970;SDS011;5026;51.494;11.974;2022-12-10T11:51:44;49.07;;;19.60;;
9970;SDS011;5026;51.494;11.974;2022-12-10T11:54:28;44.23;;;17.87;;
9970;SDS011;5026;51.494;11.974;2022-12-10T11:57:07;43.90;;;17.90;;
9970;SDS011;5026;51.494;11.974;2022-12-10T11:59:44;50.23;;;18.13;;
9970;SDS011;5026;51.494;11.974;2022-12-10T12:02:32;40.70;;;17.73;;
9970;SDS011;5026;51.494;11.974;2022-12-10T12:05:25;44.57;;;18.60;;
9970;SDS011;5026;51.494;11.974;2022-12-10T12:08:06;39.87;;;17.63;;
9970;SDS011;5026;51.494;11.974;2022-12-10T12:10:52;43.80;;;16.67;;
9970;SDS011;5026;51.494;11.974;2022-12-10T12:13:26;48.30;;;18.80;;
9970;SDS011;5026;51.494;11.974;2022-12-10T12:16:01;48.83;;;19.30;;
9970;SDS011;5026;51.494;11.974;2022-12-10T12:18:36;47.23;;;18.33;;
9970;SDS011;5026;51.494;11.974;2022-12-10T12:21:09;40.90;;;17.00;;
9970;SDS011;5026;51.494;11.974;2022-12-10T12:23:42;43.03;;;16.43;;
9970;SDS011;5026;51.494;11.974;2022-12-10T12:26:15;37.50;;;16.07;;
9970;SDS011;5026;51.494;11.974;2022-12-10T12:28:47;43.13;;;18.47;;
9970;SDS011;5026;51.494;11.974;2022-12-10T12:31:20;36.57;;;16.23;;
9970;SDS011;5026;51.494;11.974;2022-12-10T12:33:51;39.10;;;16.83;;
9970;SDS011;5026;51.494;11.974;2022-12-10T12:36:25;45.97;;;18.57;;
9970;SDS011;5026;51.494;11.974;2022-12-10T12:38:57;48.40;;;18.43;;
9970;SDS011;5026;51.494;11.974;2022-12-10T12:41:30;40.23;;;17.97;;
9970;SDS011;5026;51.494;11.974;2022-12-10T12:44:03;42.03;;;18.27;;
9970;SDS011;5026;51.494;11.974;2022-12-10T12:46:38;42.13;;;17.67;;
9970;SDS011;5026;51.494;11.974;2022-12-10T12:49:10;44.00;;;17.30;;
9970;SDS011;5026;51.494;11.974;2022-12-10T12:51:43;39.27;;;17.57;;
9970;SDS011;5026;51.494;11.974;2022-12-10T12:54:15;36.90;;;17.00;;
9970;SDS011;5026;51.494;11.974;2022-12-10T12:56:49;37.93;;;16.87;;
9970;SDS011;5026;51.494;11.974;2022-12-10T12:59:26;39.67;;;17.63;;
9970;SDS011;5026;51.494;11.974;2022-12-10T13:02:08;42.00;;;17.23;;
9970;SDS011;5026;51.494;11.974;2022-12-10T13:04:46;39.27;;;17.10;;
9970;SDS011;5026;51.494;11.974;2022-12-10T13:10:10;42.53;;;18.17;;
9970;SDS011;5026;51.494;11.974;2022-12-10T13:12:50;42.07;;;17.47;;
9970;SDS011;5026;51.494;11.974;2022-12-10T13:15:32;38.57;;;16.90;;
9970;SDS011;5026;51.494;11.974;2022-12-10T13:18:03;41.33;;;17.13;;
9970;SDS011;5026;51.494;11.974;2022-12-10T13:20:50;43.83;;;16.27;;
9970;SDS011;5026;51.494;11.974;2022-12-10T13:23:47;41.17;;;17.40;;
9970;SDS011;5026;51.494;11.974;2022-12-10T13:26:24;46.47;;;18.43;;
9970;SDS011;5026;51.494;11.974;2022-12-10T13:28:53;44.97;;;19.17;;
9970;SDS011;5026;51.494;11.974;2022-12-10T13:31:34;41.13;;;17.13;;
9970;SDS011;5026;51.494;11.974;2022-12-10T13:40:01;47.17;;;18.70;;
9970;SDS011;5026;51.494;11.974;2022-12-10T13:42:42;43.20;;;17.63;;
9970;SDS011;5026;51.494;11.974;2022-12-10T13:45:32;43.73;;;18.23;;
9970;SDS011;5026;51.494;11.974;2022-12-10T13:50:58;44.90;;;17.17;;
9970;SDS011;5026;51.494;11.974;2022-12-10T13:53:48;36.80;;;16.90;;
9970;SDS011;5026;51.494;11.974;2022-12-10T13:56:25;44.47;;;17.13;;
9970;SDS011;5026;51.494;11.974;2022-12-10T13:58:58;44.93;;;17.97;;
9970;SDS011;5026;51.494;11.974;2022-12-10T14:01:45;42.73;;;18.40;;
9970;SDS011;5026;51.494;11.974;2022-12-10T14:04:26;43.63;;;16.63;;
9970;SDS011;5026;51.494;11.974;2022-12-10T14:07:35;48.20;;;19.20;;
9970;SDS011;5026;51.494;11.974;2022-12-10T14:10:14;43.10;;;18.37;;
9970;SDS011;5026;51.494;11.974;2022-12-10T14:12:43;42.57;;;17.73;;
9970;SDS011;5026;51.494;11.974;2022-12-10T14:15:16;43.03;;;17.43;;
9970;SDS011;5026;51.494;11.974;2022-12-10T14:17:48;39.03;;;16.67;;
9970;SDS011;5026;51.494;11.974;2022-12-10T14:20:19;47.83;;;19.13;;
9970;SDS011;5026;51.494;11.974;2022-12-10T14:22:49;47.80;;;18.13;;
9970;SDS011;5026;51.494;11.974;2022-12-10T14:25:19;45.90;;;17.00;;
9970;SDS011;5026;51.494;11.974;2022-12-10T14:27:48;42.57;;;17.90;;
9970;SDS011;5026;51.494;11.974;2022-12-10T14:30:19;39.20;;;16.30;;
9970;SDS011;5026;51.494;11.974;2022-12-10T14:32:48;38.97;;;16.70;;
9970;SDS011;5026;51.494;11.974;2022-12-10T14:35:21;43.17;;;17.10;;
9970;SDS011;5026;51.494;11.974;2022-12-10T14:37:50;37.70;;;16.33;;
9970;SDS011;5026;51.494;11.974;2022-12-10T14:40:21;42.70;;;17.03;;
9970;SDS011;5026;51.494;11.974;2022-12-10T14:42:52;33.73;;;16.00;;
9970;SDS011;5026;51.494;11.974;2022-12-10T14:45:31;42.33;;;17.47;;
9970;SDS011;5026;51.494;11.974;2022-12-10T14:48:06;39.60;;;16.70;;
9970;SDS011;5026;51.494;11.974;2022-12-10T14:50:36;37.13;;;17.13;;
9970;SDS011;5026;51.494;11.974;2022-12-10T14:53:05;35.87;;;15.77;;
9970;SDS011;5026;51.494;11.974;2022-12-10T14:55:40;38.80;;;16.03;;
9970;SDS011;5026;51.494;11.974;2022-12-10T14:58:09;41.87;;;17.73;;
9970;SDS011;5026;51.494;11.974;2022-12-10T15:01:04;40.93;;;16.23;;
9970;SDS011;5026;51.494;11.974;2022-12-10T15:03:39;36.53;;;16.53;;
9970;SDS011;5026;51.494;11.974;2022-12-10T15:06:12;39.03;;;16.63;;
9970;SDS011;5026;51.494;11.974;2022-12-10T15:08:42;37.80;;;16.17;;
9970;SDS011;5026;51.494;11.974;2022-12-10T15:11:10;41.33;;;17.80;;
9970;SDS011;5026;51.494;11.974;2022-12-10T15:13:43;34.53;;;15.77;;
9970;SDS011;5026;51.494;11.974;2022-12-10T15:16:17;37.37;;;16.17;;
9970;SDS011;5026;51.494;11.974;2022-12-10T15:18:45;38.47;;;16.57;;
9970;SDS011;5026;51.494;11.974;2022-12-10T15:21:13;40.27;;;16.60;;
9970;SDS011;5026;51.494;11.974;2022-12-10T15:23:42;35.90;;;15.50;;
9970;SDS011;5026;51.494;11.974;2022-12-10T15:26:14;37.27;;;16.70;;
9970;SDS011;5026;51.494;11.974;2022-12-10T15:28:45;36.03;;;16.73;;
9970;SDS011;5026;51.494;11.974;2022-12-10T15:31:18;37.90;;;16.80;;
9970;SDS011;5026;51.494;11.974;2022-12-10T15:33:54;39.47;;;15.97;;
9970;SDS011;5026;51.494;11.974;2022-12-10T15:36:25;37.97;;;16.40;;
9970;SDS011;5026;51.494;11.974;2022-12-10T15:38:57;33.73;;;15.50;;
9970;SDS011;5026;51.494;11.974;2022-12-10T15:44:18;39.27;;;16.07;;
9970;SDS011;5026;51.494;11.974;2022-12-10T15:46:52;37.67;;;16.50;;
9970;SDS011;5026;51.494;11.974;2022-12-10T15:49:24;35.40;;;15.97;;
9970;SDS011;5026;51.494;11.974;2022-12-10T15:51:52;37.40;;;17.03;;
9970;SDS011;5026;51.494;11.974;2022-12-10T15:54:22;36.10;;;16.80;;
9970;SDS011;5026;51.494;11.974;2022-12-10T15:56:53;37.23;;;16.73;;
9970;SDS011;5026;51.494;11.974;2022-12-10T15:59:20;37.90;;;16.87;;
9970;SDS011;5026;51.494;11.974;2022-12-10T16:01:47;39.97;;;17.23;;
9970;SDS011;5026;51.494;11.974;2022-12-10T16:04:16;40.60;;;17.67;;
9970;SDS011;5026;51.494;11.974;2022-12-10T16:06:43;39.63;;;16.83;;
9970;SDS011;5026;51.494;11.974;2022-12-10T16:09:10;36.53;;;16.13;;
9970;SDS011;5026;51.494;11.974;2022-12-10T16:11:37;39.93;;;17.33;;
9970;SDS011;5026;51.494;11.974;2022-12-10T16:14:05;35.83;;;16.33;;
9970;SDS011;5026;51.494;11.974;2022-12-10T16:16:32;37.13;;;17.40;;
9970;SDS011;5026;51.494;11.974;2022-12-10T16:18:59;40.93;;;17.80;;
9970;SDS011;5026;51.494;11.974;2022-12-10T16:21:28;41.50;;;17.90;;
9970;SDS011;5026;51.494;11.974;2022-12-10T16:23:58;39.93;;;18.07;;
9970;SDS011;5026;51.494;11.974;2022-12-10T16:26:25;39.83;;;17.87;;
9970;SDS011;5026;51.494;11.974;2022-12-10T16:28:52;40.47;;;17.27;;
9970;SDS011;5026;51.494;11.974;2022-12-10T16:31:21;42.30;;;17.80;;
9970;SDS011;5026;51.494;11.974;2022-12-10T16:33:48;42.30;;;17.80;;
9970;SDS011;5026;51.494;11.974;2022-12-10T16:36:17;41.77;;;17.50;;
9970;SDS011;5026;51.494;11.974;2022-12-10T16:38:46;48.27;;;20.03;;
9970;SDS011;5026;51.494;11.974;2022-12-10T16:41:14;40.97;;;18.53;;
9970;SDS011;5026;51.494;11.974;2022-12-10T16:43:43;38.53;;;19.10;;
9970;SDS011;5026;51.494;11.974;2022-12-10T16:46:11;43.70;;;18.50;;
9970;SDS011;5026;51.494;11.974;2022-12-10T16:48:38;41.10;;;19.07;;
9970;SDS011;5026;51.494;11.974;2022-12-10T16:51:06;40.83;;;18.53;;
9970;SDS011;5026;51.494;11.974;2022-12-10T16:53:41;42.57;;;18.50;;
9970;SDS011;5026;51.494;11.974;2022-12-10T16:56:11;38.40;;;18.83;;
9970;SDS011;5026;51.494;11.974;2022-12-10T16:58:40;40.33;;;18.53;;
9970;SDS011;5026;51.494;11.974;2022-12-10T17:01:13;44.37;;;19.60;;
9970;SDS011;5026;51.494;11.974;2022-12-10T17:03:43;39.20;;;18.73;;
9970;SDS011;5026;51.494;11.974;2022-12-10T17:06:10;43.40;;;19.57;;
9970;SDS011;5026;51.494;11.974;2022-12-10T17:08:38;41.90;;;19.10;;
9970;SDS011;5026;51.494;11.974;2022-12-10T17:11:09;46.03;;;19.40;;
9970;SDS011;5026;51.494;11.974;2022-12-10T17:14:02;41.33;;;18.70;;
9970;SDS011;5026;51.494;11.974;2022-12-10T17:16:30;43.83;;;19.57;;
9970;SDS011;5026;51.494;11.974;2022-12-10T17:18:57;48.35;;;24.77;;
9970;SDS011;5026;51.494;11.974;2022-12-10T17:21:24;47.03;;;21.27;;
9970;SDS011;5026;51.494;11.974;2022-12-10T17:23:51;41.17;;;19.40;;
9970;SDS011;5026;51.494;11.974;2022-12-10T17:26:23;40.50;;;19.43;;
9970;SDS011;5026;51.494;11.974;2022-12-10T17:28:54;41.17;;;19.47;;
9970;SDS011;5026;51.494;11.974;2022-12-10T17:31:26;42.07;;;19.07;;
9970;SDS011;5026;51.494;11.974;2022-12-10T17:33:53;39.77;;;19.30;;
9970;SDS011;5026;51.494;11.974;2022-12-10T17:36:20;39.77;;;19.60;;
9970;SDS011;5026;51.494;11.974;2022-12-10T17:38:47;44.57;;;20.57;;
9970;SDS011;5026;51.494;11.974;2022-12-10T17:41:15;41.57;;;19.97;;
9970;SDS011;5026;51.494;11.974;2022-12-10T17:43:43;41.57;;;20.43;;
9970;SDS011;5026;51.494;11.974;2022-12-10T17:46:11;41.90;;;20.27;;
9970;SDS011;5026;51.494;11.974;2022-12-10T17:48:38;41.30;;;19.63;;
9970;SDS011;5026;51.494;11.974;2022-12-10T17:51:05;38.93;;;19.47;;
9970;SDS011;5026;51.494;11.974;2022-12-10T17:53:32;41.83;;;20.70;;
9970;SDS011;5026;51.494;11.974;2022-12-10T17:56:00;41.87;;;19.20;;
9970;SDS011;5026;51.494;11.974;2022-12-10T17:58:27;44.57;;;19.93;;
9970;SDS011;5026;51.494;11.974;2022-12-10T18:00:56;42.83;;;20.23;;
9970;SDS011;5026;51.494;11.974;2022-12-10T18:03:23;41.20;;;20.30;;
9970;SDS011;5026;51.494;11.974;2022-12-10T18:05:50;44.53;;;21.20;;
9970;SDS011;5026;51.494;11.974;2022-12-10T18:08:18;44.57;;;20.47;;
9970;SDS011;5026;51.494;11.974;2022-12-10T18:10:47;43.43;;;19.83;;
9970;SDS011;5026;51.494;11.974;2022-12-10T18:13:15;44.67;;;21.57;;
9970;SDS011;5026;51.494;11.974;2022-12-10T18:15:44;42.00;;;19.67;;
9970;SDS011;5026;51.494;11.974;2022-12-10T18:18:12;42.80;;;20.10;;
9970;SDS011;5026;51.494;11.974;2022-12-10T18:20:40;37.50;;;18.73;;
9970;SDS011;5026;51.494;11.974;2022-12-10T18:23:10;39.63;;;19.37;;
9970;SDS011;5026;51.494;11.974;2022-12-10T18:25:38;38.07;;;18.07;;
9970;SDS011;5026;51.494;11.974;2022-12-10T18:28:14;41.77;;;18.57;;
9970;SDS011;5026;51.494;11.974;2022-12-10T18:31:12;31.53;;;15.73;;
9970;SDS011;5026;51.494;11.974;2022-12-10T18:33:44;36.47;;;19.07;;
9970;SDS011;5026;51.494;11.974;2022-12-10T18:36:14;34.67;;;18.33;;
9970;SDS011;5026;51.494;11.974;2022-12-10T18:38:43;40.87;;;19.30;;
9970;SDS011;5026;51.494;11.974;2022-12-10T18:41:11;37.17;;;17.87;;
9970;SDS011;5026;51.494;11.974;2022-12-10T18:43:40;36.70;;;17.77;;
9970;SDS011;5026;51.494;11.974;2022-12-10T18:46:10;33.13;;;17.07;;
9970;SDS011;5026;51.494;11.974;2022-12-10T18:48:38;36.80;;;17.77;;
9970;SDS011;5026;51.494;11.974;2022-12-10T18:51:07;37.10;;;17.87;;
9970;SDS011;5026;51.494;11.974;2022-12-10T18:53:34;35.37;;;17.73;;
9970;SDS011;5026;51.494;11.974;2022-12-10T18:56:02;32.87;;;16.63;;
9970;SDS011;5026;51.494;11.974;2022-12-10T18:58:29;31.97;;;16.80;;
9970;SDS011;5026;51.494;11.974;2022-12-10T19:00:56;30.10;;;15.97;;
9970;SDS011;5026;51.494;11.974;2022-12-10T19:03:23;28.30;;;15.27;;
9970;SDS011;5026;51.494;11.974;2022-12-10T19:05:51;32.40;;;16.50;;
9970;SDS011;5026;51.494;11.974;2022-12-10T19:08:19;30.63;;;15.70;;
9970;SDS011;5026;51.494;11.974;2022-12-10T19:10:46;27.33;;;15.57;;
9970;SDS011;5026;51.494;11.974;2022-12-10T19:13:13;31.40;;;15.97;;
9970;SDS011;5026;51.494;11.974;2022-12-10T19:15:40;30.90;;;15.70;;
9970;SDS011;5026;51.494;11.974;2022-12-10T19:18:08;32.33;;;16.07;;
9970;SDS011;5026;51.494;11.974;2022-12-10T19:20:38;28.80;;;15.43;;
9970;SDS011;5026;51.494;11.974;2022-12-10T19:23:05;31.67;;;15.90;;
9970;SDS011;5026;51.494;11.974;2022-12-10T19:25:34;31.37;;;16.57;;
9970;SDS011;5026;51.494;11.974;2022-12-10T19:28:01;32.23;;;15.43;;
9970;SDS011;5026;51.494;11.974;2022-12-10T19:30:31;28.70;;;15.23;;
9970;SDS011;5026;51.494;11.974;2022-12-10T19:32:59;29.93;;;15.57;;
9970;SDS011;5026;51.494;11.974;2022-12-10T19:35:26;28.90;;;15.47;;
9970;SDS011;5026;51.494;11.974;2022-12-10T19:37:53;28.97;;;15.17;;
9970;SDS011;5026;51.494;11.974;2022-12-10T19:40:21;32.03;;;16.30;;
9970;SDS011;5026;51.494;11.974;2022-12-10T19:42:51;28.53;;;16.17;;
9970;SDS011;5026;51.494;11.974;2022-12-10T19:45:18;30.70;;;16.50;;
9970;SDS011;5026;51.494;11.974;2022-12-10T19:47:46;30.50;;;15.37;;
9970;SDS011;5026;51.494;11.974;2022-12-10T19:50:14;27.47;;;15.93;;
9970;SDS011;5026;51.494;11.974;2022-12-10T19:52:43;30.87;;;16.43;;
9970;SDS011;5026;51.494;11.974;2022-12-10T19:55:11;31.60;;;18.30;;
9970;SDS011;5026;51.494;11.974;2022-12-10T19:57:38;34.87;;;16.87;;
9970;SDS011;5026;51.494;11.974;2022-12-10T20:00:07;31.43;;;15.70;;
9970;SDS011;5026;51.494;11.974;2022-12-10T20:02:40;33.10;;;16.30;;
9970;SDS011;5026;51.494;11.974;2022-12-10T20:05:08;31.93;;;17.70;;
9970;SDS011;5026;51.494;11.974;2022-12-10T20:07:35;32.33;;;16.67;;
9970;SDS011;5026;51.494;11.974;2022-12-10T20:10:03;28.97;;;15.03;;
9970;SDS011;5026;51.494;11.974;2022-12-10T20:12:30;25.70;;;14.50;;